Time;durP1;ratioP1;P1;durP2;ratioP2;P2;SDS_P1;SDS_P2;PMS_P1;PMS_P2;Temp;Humidity;BMP_temperature;BMP_pressure;BME280_temperature;BME280_humidity;BME280_pressure;Samples;Min_cycle;Max_cycle;Signal;HPM_P1;HPM_P2
2023/06/24 00:02:16;;;;;;;8.27;6.10;;;20.10;1.00;;;;;;5046962;28;20450;-77
2023/06/24 00:04:42;;;;;;;6.90;5.40;;;19.90;1.00;;;;;;5048326;28;20619;-80
2023/06/24 00:07:07;;;;;;;7.60;5.70;;;19.80;1.00;;;;;;5041969;28;20685;-79
2023/06/24 00:09:40;;;;;;;7.70;5.30;;;19.80;1.00;;;;;;5048701;28;20238;-79
2023/06/24 00:12:06;;;;;;;11.83;6.50;;;19.80;1.00;;;;;;5046985;28;20727;-79
2023/06/24 00:14:32;;;;;;;9.50;6.10;;;19.70;1.00;;;;;;5047320;28;20466;-79
2023/06/24 00:16:57;;;;;;;9.60;5.90;;;19.60;1.00;;;;;;5050027;28;20787;-79
2023/06/24 00:19:25;;;;;;;7.63;5.50;;;19.50;1.00;;;;;;5049956;28;21573;-80
2023/06/24 00:21:51;;;;;;;8.70;6.40;;;19.50;1.00;;;;;;5048684;28;20303;-78
2023/06/24 00:24:19;;;;;;;8.60;6.33;;;19.40;1.00;;;;;;5048044;28;20454;-78
2023/06/24 00:26:47;;;;;;;8.30;5.97;;;19.40;1.00;;;;;;5051238;28;20444;-78
2023/06/24 00:29:13;;;;;;;7.10;6.00;;;19.40;1.00;;;;;;5054068;28;20450;-79
2023/06/24 00:31:39;;;;;;;8.20;6.20;;;19.40;1.00;;;;;;5048397;28;20455;-78
2023/06/24 00:34:04;;;;;;;8.03;6.13;;;19.40;1.00;;;;;;5048283;28;20215;-79
2023/06/24 00:36:31;;;;;;;8.50;5.37;;;19.30;1.00;;;;;;5045037;28;20269;-79
2023/06/24 00:39:01;;;;;;;7.60;6.00;;;19.20;1.00;;;;;;5045864;28;20192;-79
2023/06/24 00:41:27;;;;;;;9.57;6.03;;;19.10;1.00;;;;;;5050032;28;20478;-78
2023/06/24 00:43:53;;;;;;;8.13;6.10;;;19.10;1.00;;;;;;5046576;28;20459;-79
2023/06/24 00:46:19;;;;;;;11.27;6.47;;;19.00;1.00;;;;;;5049768;28;20195;-79
2023/06/24 00:48:45;;;;;;;9.90;6.00;;;19.00;1.00;;;;;;5049993;28;20191;-79
2023/06/24 00:51:10;;;;;;;8.13;6.20;;;19.00;1.00;;;;;;5045801;28;20454;-79
2023/06/24 00:53:36;;;;;;;11.37;6.73;;;19.00;1.00;;;;;;5046019;28;20663;-77
2023/06/24 00:56:03;;;;;;;12.97;6.40;;;19.00;1.00;;;;;;5045970;28;20258;-76
2023/06/24 00:58:33;;;;;;;8.53;5.97;;;18.90;1.00;;;;;;5050510;28;20205;-79
2023/06/24 01:00:58;;;;;;;7.50;6.10;;;18.90;1.00;;;;;;5055141;28;20455;-78
2023/06/24 01:03:25;;;;;;;7.47;6.03;;;18.90;1.00;;;;;;5060385;28;20439;-79
2023/06/24 01:05:51;;;;;;;8.50;6.20;;;18.80;1.00;;;;;;5058435;28;20192;-80
2023/06/24 01:08:19;;;;;;;7.87;6.40;;;18.80;1.00;;;;;;5055775;28;20464;-79
2023/06/24 01:10:45;;;;;;;9.80;6.23;;;18.70;1.00;;;;;;5051338;28;20545;-78
2023/06/24 01:13:10;;;;;;;14.70;6.73;;;18.70;1.00;;;;;;5050829;28;20467;-80
2023/06/24 01:15:36;;;;;;;8.93;6.50;;;18.70;1.00;;;;;;5055216;28;20185;-78
2023/06/24 01:18:16;;;;;;;8.73;6.53;;;18.70;1.00;;;;;;5048205;28;20319;-80
2023/06/24 01:21:06;;;;;;;8.60;6.60;;;18.70;1.00;;;;;;5051790;28;20474;-78
2023/06/24 01:23:46;;;;;;;8.93;6.47;;;18.60;1.00;;;;;;5054177;28;20451;-77
2023/06/24 01:26:23;;;;;;;9.43;6.87;;;18.60;1.00;;;;;;5054865;28;20431;-79
2023/06/24 01:29:30;;;;;;;8.43;6.60;;;18.50;1.00;;;;;;5053542;28;20522;-79
2023/06/24 01:32:16;;;;;;;12.73;7.10;;;18.30;1.00;;;;;;5054737;28;20446;-79
2023/06/24 01:34:59;;;;;;;11.17;7.33;;;18.20;1.00;;;;;;5053033;28;20463;-78
2023/06/24 01:37:40;;;;;;;16.70;6.97;;;18.20;1.00;;;;;;5048145;28;20439;-80
2023/06/24 01:40:12;;;;;;;7.97;6.23;;;18.20;1.00;;;;;;5052128;28;21780;-79
2023/06/24 01:42:40;;;;;;;12.30;6.77;;;18.20;1.00;;;;;;5053216;28;20426;-79
2023/06/24 01:45:09;;;;;;;10.33;6.90;;;18.10;1.00;;;;;;5054440;28;20430;-79
2023/06/24 01:47:36;;;;;;;8.20;6.77;;;18.10;1.00;;;;;;5049397;28;20443;-79
2023/06/24 01:50:03;;;;;;;9.23;6.80;;;18.10;1.00;;;;;;5053112;28;20961;-80
2023/06/24 01:52:30;;;;;;;16.47;7.30;;;18.00;1.00;;;;;;5052690;28;21008;-79
2023/06/24 01:54:58;;;;;;;8.13;6.97;;;18.00;1.00;;;;;;5053055;28;20815;-78
2023/06/24 01:57:24;;;;;;;9.17;6.50;;;18.00;1.00;;;;;;5054664;28;20455;-79
2023/06/24 01:59:53;;;;;;;13.43;6.37;;;17.90;1.00;;;;;;5046032;28;20973;-79
2023/06/24 02:02:20;;;;;;;11.40;7.57;;;17.80;1.00;;;;;;5053454;28;20474;-80
2023/06/24 02:04:45;;;;;;;11.53;6.93;;;17.80;1.00;;;;;;5052685;28;20474;-79
2023/06/24 02:07:12;;;;;;;8.93;7.20;;;17.80;1.00;;;;;;5053830;28;20474;-79
2023/06/24 02:09:39;;;;;;;12.27;7.30;;;17.70;1.00;;;;;;5052749;28;20190;-78
2023/06/24 02:12:05;;;;;;;8.40;6.40;;;17.70;1.00;;;;;;5043219;28;20462;-80
2023/06/24 02:14:32;;;;;;;8.87;7.37;;;17.70;1.00;;;;;;5050454;28;20502;-79
2023/06/24 02:17:00;;;;;;;8.67;7.40;;;17.70;1.00;;;;;;5048319;28;20438;-79
2023/06/24 02:19:29;;;;;;;7.73;6.23;;;17.70;1.00;;;;;;5050475;28;20439;-79
2023/06/24 02:21:57;;;;;;;8.67;7.00;;;17.60;1.00;;;;;;5050106;28;20444;-80
2023/06/24 02:24:23;;;;;;;8.13;6.83;;;17.60;1.00;;;;;;5040764;28;20439;-79
2023/06/24 02:26:50;;;;;;;7.37;6.50;;;17.50;1.00;;;;;;5048850;28;20445;-79
2023/06/24 02:29:17;;;;;;;9.23;7.10;;;17.50;1.00;;;;;;5048703;28;20447;-79
2023/06/24 02:31:43;;;;;;;14.10;7.20;;;17.60;1.00;;;;;;5048106;28;20471;-79
2023/06/24 02:34:09;;;;;;;9.03;7.00;;;17.50;1.00;;;;;;5050196;28;20467;-79
2023/06/24 02:36:34;;;;;;;10.47;6.87;;;17.50;1.00;;;;;;5044113;28;20186;-79
2023/06/24 02:39:00;;;;;;;8.03;6.50;;;17.40;1.00;;;;;;5050082;28;20230;-79
2023/06/24 02:41:26;;;;;;;7.83;6.20;;;17.30;1.00;;;;;;5046650;28;20282;-78
2023/06/24 02:43:51;;;;;;;7.60;6.43;;;17.20;1.00;;;;;;5049158;28;20196;-79
2023/06/24 02:46:18;;;;;;;7.23;6.33;;;17.30;1.00;;;;;;5045617;28;20198;-79
2023/06/24 02:48:45;;;;;;;7.83;6.40;;;17.30;1.00;;;;;;5051119;28;20181;-79
2023/06/24 02:51:12;;;;;;;9.20;7.20;;;17.30;1.00;;;;;;5049661;28;20821;-79
2023/06/24 02:53:39;;;;;;;8.17;6.70;;;17.20;1.00;;;;;;5048926;28;20459;-77
2023/06/24 02:56:06;;;;;;;8.53;6.77;;;17.20;1.00;;;;;;5041980;28;20493;-79
2023/06/24 02:58:32;;;;;;;8.13;6.50;;;17.10;1.00;;;;;;5049382;28;20442;-78
2023/06/24 03:01:03;;;;;;;7.97;6.27;;;17.10;1.00;;;;;;5045250;28;20491;-79
2023/06/24 03:03:30;;;;;;;10.90;6.83;;;17.20;1.00;;;;;;5049592;28;20475;-78
2023/06/24 03:05:59;;;;;;;7.67;6.23;;;17.20;1.00;;;;;;5048718;28;20470;-78
2023/06/24 03:08:24;;;;;;;9.20;7.00;;;17.20;1.00;;;;;;5050426;28;20493;-78
2023/06/24 03:10:56;;;;;;;9.70;6.83;;;17.20;1.00;;;;;;5046350;28;20474;-76
2023/06/24 03:13:23;;;;;;;10.63;6.90;;;17.20;1.00;;;;;;5046950;28;20722;-78
2023/06/24 03:15:48;;;;;;;7.70;6.73;;;17.20;1.00;;;;;;5049889;28;20496;-79
2023/06/24 03:18:15;;;;;;;9.10;6.80;;;17.20;1.00;;;;;;5045511;28;22300;-78
2023/06/24 03:20:40;;;;;;;7.73;6.93;;;17.20;1.00;;;;;;5046045;28;20193;-75
2023/06/24 03:23:06;;;;;;;8.77;7.00;;;17.10;1.00;;;;;;5049259;28;20438;-79
2023/06/24 03:25:32;;;;;;;12.73;7.27;;;17.00;1.00;;;;;;5049723;28;20256;-78
2023/06/24 03:28:00;;;;;;;10.00;6.90;;;16.90;1.00;;;;;;5046697;28;20192;-78
2023/06/24 03:30:26;;;;;;;9.80;7.60;;;16.90;1.00;;;;;;5047937;28;20459;-78
2023/06/24 03:32:52;;;;;;;7.70;6.37;;;16.80;1.00;;;;;;5045112;28;20484;-78
2023/06/24 03:35:17;;;;;;;10.43;6.67;;;16.80;1.00;;;;;;5044775;28;20814;-78
2023/06/24 03:37:43;;;;;;;7.63;6.53;;;16.70;1.00;;;;;;5044529;28;20177;-78
2023/06/24 03:40:09;;;;;;;8.43;7.10;;;16.70;1.00;;;;;;5047676;28;20197;-79
2023/06/24 03:42:34;;;;;;;7.30;6.27;;;16.70;1.00;;;;;;5047336;28;20516;-79
2023/06/24 03:45:00;;;;;;;8.90;6.73;;;16.70;1.00;;;;;;5049428;28;20738;-78
2023/06/24 03:47:25;;;;;;;7.90;6.80;;;16.70;1.00;;;;;;5043468;28;20239;-79
2023/06/24 03:49:51;;;;;;;9.33;6.73;;;16.60;1.00;;;;;;5047365;28;20192;-78
2023/06/24 03:52:19;;;;;;;8.77;6.10;;;16.70;1.00;;;;;;5049431;28;20196;-79
2023/06/24 03:54:45;;;;;;;9.20;6.90;;;16.70;1.00;;;;;;5046134;28;20204;-77
2023/06/24 03:57:11;;;;;;;7.90;6.27;;;16.70;1.00;;;;;;5047260;28;20442;-78
2023/06/24 03:59:36;;;;;;;9.03;6.37;;;16.80;1.00;;;;;;5048904;28;20431;-79
2023/06/24 04:02:02;;;;;;;8.57;6.43;;;17.10;1.00;;;;;;5048355;28;20216;-78
2023/06/24 04:04:28;;;;;;;11.67;6.57;;;16.90;1.00;;;;;;5048101;28;20198;-78
2023/06/24 04:06:53;;;;;;;9.93;6.83;;;16.90;1.00;;;;;;5046945;28;20267;-78
2023/06/24 04:09:18;;;;;;;7.90;6.50;;;16.90;1.00;;;;;;5046077;28;20667;-78
2023/06/24 04:11:44;;;;;;;9.47;6.73;;;17.00;1.00;;;;;;5046354;28;20216;-76
2023/06/24 04:14:10;;;;;;;7.80;6.60;;;17.00;1.00;;;;;;5056730;28;20209;-78
2023/06/24 04:16:35;;;;;;;11.57;7.20;;;17.00;1.00;;;;;;5054574;28;20180;-78
2023/06/24 04:19:01;;;;;;;8.10;6.33;;;17.10;1.00;;;;;;5042152;28;20264;-78
2023/06/24 04:21:27;;;;;;;10.07;7.17;;;17.20;1.00;;;;;;5049880;28;20244;-78
2023/06/24 04:23:53;;;;;;;11.03;6.60;;;17.20;1.00;;;;;;5047991;28;20185;-78
2023/06/24 04:26:18;;;;;;;9.40;7.00;;;17.20;1.00;;;;;;5047947;28;20234;-78
2023/06/24 04:28:44;;;;;;;8.07;6.77;;;17.20;1.00;;;;;;5054753;28;20689;-78
2023/06/24 04:31:09;;;;;;;9.03;6.97;;;18.40;1.00;;;;;;5040439;28;20607;-78
2023/06/24 04:33:35;;;;;;;9.07;7.07;;;17.50;1.00;;;;;;5041281;28;20201;-78
2023/06/24 04:36:01;;;;;;;9.80;6.33;;;17.40;1.00;;;;;;5047669;28;20181;-79
2023/06/24 04:38:26;;;;;;;8.40;6.27;;;17.40;1.00;;;;;;5048370;28;20196;-78
2023/06/24 04:40:52;;;;;;;8.30;6.93;;;17.40;1.00;;;;;;5048379;28;20240;-78
2023/06/24 04:43:18;;;;;;;8.03;6.40;;;17.50;1.00;;;;;;5049584;28;20207;-78
2023/06/24 04:45:44;;;;;;;10.47;7.07;;;17.50;1.00;;;;;;5048814;28;20966;-76
2023/06/24 04:48:09;;;;;;;9.03;7.13;;;17.60;1.00;;;;;;5049042;28;20268;-78
2023/06/24 04:50:35;;;;;;;9.53;6.70;;;17.60;1.00;;;;;;5048954;28;20224;-78
2023/06/24 04:53:01;;;;;;;8.70;7.17;;;17.70;1.00;;;;;;5049032;28;20189;-79
2023/06/24 04:55:29;;;;;;;9.00;6.83;;;17.90;1.00;;;;;;5046340;28;20183;-78
2023/06/24 04:57:55;;;;;;;10.83;6.90;;;17.90;1.00;;;;;;5046634;28;20989;-78
2023/06/24 05:00:23;;;;;;;9.27;7.53;;;17.90;1.00;;;;;;5047032;28;20451;-78
2023/06/24 05:02:48;;;;;;;9.30;6.70;;;17.90;1.00;;;;;;5045836;28;20169;-77
2023/06/24 05:05:14;;;;;;;9.07;6.60;;;18.00;1.00;;;;;;5062362;28;20512;-78
2023/06/24 05:07:39;;;;;;;8.13;6.73;;;18.00;1.00;;;;;;5045469;28;20185;-78
2023/06/24 05:10:11;;;;;;;9.60;6.80;;;18.10;1.00;;;;;;5045065;28;20299;-76
2023/06/24 05:12:37;;;;;;;8.07;6.90;;;18.10;1.00;;;;;;5043559;28;20196;-79
2023/06/24 05:15:03;;;;;;;11.63;6.67;;;18.30;1.00;;;;;;5046066;28;20463;-76
2023/06/24 05:17:28;;;;;;;7.80;5.63;;;18.40;1.00;;;;;;5043952;28;20309;-79
2023/06/24 05:19:54;;;;;;;9.13;6.43;;;18.70;1.00;;;;;;5045910;28;20177;-82
2023/06/24 05:22:19;;;;;;;9.53;6.40;;;18.70;1.00;;;;;;5043381;28;20216;-79
2023/06/24 05:24:45;;;;;;;9.00;6.10;;;18.80;1.00;;;;;;5045672;28;20689;-79
2023/06/24 05:27:10;;;;;;;12.33;6.40;;;18.90;1.00;;;;;;5046867;28;20195;-81
2023/06/24 05:29:36;;;;;;;8.63;6.00;;;19.00;1.00;;;;;;5048333;28;20256;-79
2023/06/24 05:32:03;;;;;;;15.13;6.23;;;19.10;1.00;;;;;;5046861;28;20266;-79
2023/06/24 05:34:29;;;;;;;9.93;6.20;;;19.20;1.00;;;;;;5047574;28;20197;-80
2023/06/24 05:36:55;;;;;;;8.70;5.80;;;19.40;1.00;;;;;;5044996;28;20555;-81
2023/06/24 05:39:20;;;;;;;8.87;6.23;;;19.50;1.00;;;;;;5047756;28;20550;-79
2023/06/24 05:41:48;;;;;;;8.47;6.17;;;19.60;1.00;;;;;;5045549;28;20197;-79
2023/06/24 05:44:14;;;;;;;8.43;6.03;;;19.70;1.00;;;;;;5045370;28;20723;-80
2023/06/24 05:46:39;;;;;;;8.43;6.10;;;19.80;1.00;;;;;;5049864;28;20526;-81
2023/06/24 05:49:05;;;;;;;8.10;5.93;;;19.90;1.00;;;;;;5045864;28;20575;-80
2023/06/24 05:51:30;;;;;;;6.90;5.40;;;20.10;1.00;;;;;;5047877;28;20686;-80
2023/06/24 05:53:56;;;;;;;8.60;5.90;;;20.20;1.00;;;;;;5046483;28;20205;-80
2023/06/24 05:56:22;;;;;;;7.83;5.67;;;20.30;1.00;;;;;;5047664;28;20173;-82
2023/06/24 05:58:48;;;;;;;7.87;5.70;;;20.70;1.00;;;;;;5049661;28;20176;-82
2023/06/24 06:01:14;;;;;;;8.07;5.00;;;20.60;1.00;;;;;;5048814;28;20976;-82
2023/06/24 06:03:39;;;;;;;6.63;5.43;;;20.70;1.00;;;;;;5048484;28;20427;-78
2023/06/24 06:06:05;;;;;;;6.77;5.10;;;20.80;1.00;;;;;;5045079;28;20185;-78
2023/06/24 06:08:31;;;;;;;8.70;5.10;;;20.90;1.00;;;;;;5050138;28;20192;-82
2023/06/24 06:10:56;;;;;;;6.70;5.20;;;21.00;1.00;;;;;;5046914;28;20240;-82
2023/06/24 06:13:22;;;;;;;8.43;5.33;;;21.10;1.00;;;;;;5048171;28;20209;-78
2023/06/24 06:15:47;;;;;;;6.37;4.93;;;21.10;1.00;;;;;;5051656;28;20200;-81
2023/06/24 06:18:13;;;;;;;6.23;4.70;;;21.30;1.00;;;;;;5059431;28;20176;-80
2023/06/24 06:20:38;;;;;;;7.53;5.47;;;21.40;1.00;;;;;;5051405;28;20220;-80
2023/06/24 06:23:04;;;;;;;7.47;5.20;;;21.50;1.00;;;;;;5050942;28;20246;-80
2023/06/24 06:25:29;;;;;;;8.50;5.00;;;21.60;1.00;;;;;;5052503;28;20227;-80
2023/06/24 06:27:55;;;;;;;7.00;4.87;;;21.90;1.00;;;;;;5052142;28;20582;-80
2023/06/24 06:30:21;;;;;;;6.60;5.17;;;21.90;1.00;;;;;;5059018;28;20258;-76
2023/06/24 06:32:46;;;;;;;7.50;5.53;;;21.80;1.00;;;;;;5052653;28;20188;-80
2023/06/24 06:35:12;;;;;;;10.00;5.70;;;21.80;1.00;;;;;;5052637;28;20212;-82
2023/06/24 06:37:37;;;;;;;8.77;5.33;;;21.80;1.00;;;;;;5051579;28;20844;-80
2023/06/24 06:40:03;;;;;;;7.10;5.30;;;21.90;1.00;;;;;;5051942;28;20246;-81
2023/06/24 06:42:29;;;;;;;7.90;5.47;;;21.90;1.00;;;;;;5051049;28;20262;-80
2023/06/24 06:44:55;;;;;;;6.43;5.43;;;22.00;1.00;;;;;;5052257;28;20255;-81
2023/06/24 06:47:21;;;;;;;6.90;5.30;;;22.10;1.00;;;;;;5045412;28;20451;-78
2023/06/24 06:49:46;;;;;;;8.43;5.60;;;22.30;1.00;;;;;;5050529;28;20659;-81
2023/06/24 06:52:12;;;;;;;6.70;5.30;;;22.30;1.00;;;;;;5051368;28;20189;-80
2023/06/24 06:54:37;;;;;;;7.13;5.67;;;22.50;1.00;;;;;;5052662;28;20208;-79
2023/06/24 06:57:03;;;;;;;6.27;5.10;;;22.60;1.00;;;;;;5049613;28;20177;-80
2023/06/24 06:59:30;;;;;;;6.50;5.00;;;22.70;1.00;;;;;;5050981;28;20423;-80
2023/06/24 07:01:56;;;;;;;7.20;5.30;;;22.80;1.00;;;;;;5052907;28;20275;-80
2023/06/24 07:04:24;;;;;;;12.83;5.53;;;23.00;1.00;;;;;;5057189;28;20467;-80
2023/06/24 07:06:50;;;;;;;6.83;5.23;;;23.10;1.00;;;;;;5060536;28;20654;-81
2023/06/24 07:09:16;;;;;;;7.67;5.50;;;23.00;1.00;;;;;;5060371;28;20462;-83
2023/06/24 07:11:42;;;;;;;8.10;5.27;;;23.10;1.00;;;;;;5054091;28;20212;-80
2023/06/24 07:14:08;;;;;;;6.77;5.37;;;23.30;1.00;;;;;;5052147;28;20473;-80
2023/06/24 07:16:33;;;;;;;6.60;5.30;;;23.40;1.00;;;;;;5052353;28;20435;-82
2023/06/24 07:18:59;;;;;;;7.00;5.30;;;23.70;1.00;;;;;;5051919;28;20616;-77
2023/06/24 07:21:24;;;;;;;8.97;5.13;;;24.60;1.00;;;;;;5053576;28;20601;-79
2023/06/24 07:23:50;;;;;;;6.33;5.10;;;23.80;1.00;;;;;;5052302;28;20271;-79
2023/06/24 07:26:16;;;;;;;8.87;5.90;;;24.00;1.00;;;;;;5051645;28;20212;-82
2023/06/24 07:28:41;;;;;;;7.10;5.37;;;24.20;1.00;;;;;;5051760;28;20234;-80
2023/06/24 07:31:07;;;;;;;6.93;4.77;;;24.30;1.00;;;;;;5048862;28;20224;-80
2023/06/24 07:33:32;;;;;;;7.40;5.30;;;24.50;1.00;;;;;;5049310;28;20206;-82
2023/06/24 07:35:58;;;;;;;7.47;5.60;;;24.60;1.00;;;;;;5049705;28;20189;-79
2023/06/24 07:38:23;;;;;;;7.87;5.13;;;24.80;1.00;;;;;;5049722;28;20186;-79
2023/06/24 07:40:49;;;;;;;7.07;5.30;;;25.10;1.00;;;;;;5050493;28;20735;-79
2023/06/24 07:43:14;;;;;;;7.57;5.17;;;25.20;1.00;;;;;;5049775;28;20204;-81
2023/06/24 07:45:40;;;;;;;6.70;5.23;;;25.50;1.00;;;;;;5050078;28;20172;-79
2023/06/24 07:48:07;;;;;;;6.50;5.43;;;25.50;1.00;;;;;;5049450;28;20309;-79
2023/06/24 07:50:33;;;;;;;10.13;5.50;;;25.50;1.00;;;;;;5051291;28;20303;-79
2023/06/24 07:52:59;;;;;;;7.03;5.00;;;25.60;1.00;;;;;;5050109;28;20433;-80
2023/06/24 07:55:24;;;;;;;10.33;5.43;;;25.90;1.00;;;;;;5051135;28;20419;-79
2023/06/24 07:57:50;;;;;;;6.40;5.10;;;26.20;1.00;;;;;;5051297;28;20189;-79
2023/06/24 08:00:16;;;;;;;10.60;5.23;;;26.30;1.00;;;;;;5050695;28;20582;-81
2023/06/24 08:02:41;;;;;;;8.90;5.13;;;26.50;1.00;;;;;;5043060;28;20189;-82
2023/06/24 08:05:09;;;;;;;6.20;5.07;;;26.80;1.00;;;;;;5048746;28;20185;-79
2023/06/24 08:07:34;;;;;;;6.27;4.67;;;26.90;1.00;;;;;;5051302;28;20670;-79
2023/06/24 08:10:00;;;;;;;6.60;4.70;;;27.10;1.00;;;;;;5039990;28;20473;-80
2023/06/24 08:12:26;;;;;;;7.07;5.20;;;27.20;1.00;;;;;;5047361;28;20185;-79
2023/06/24 08:14:51;;;;;;;8.20;4.90;;;27.20;1.00;;;;;;5046872;28;20208;-79
2023/06/24 08:17:17;;;;;;;8.30;5.23;;;27.20;1.00;;;;;;5050379;28;20547;-79
2023/06/24 08:19:42;;;;;;;11.40;5.00;;;27.60;1.00;;;;;;5051019;28;20208;-81
2023/06/24 08:22:08;;;;;;;7.03;5.30;;;27.50;1.00;;;;;;5050565;28;20216;-79
2023/06/24 08:24:33;;;;;;;6.80;4.63;;;27.80;1.00;;;;;;5051051;28;20176;-79
2023/06/24 08:26:59;;;;;;;8.47;5.90;;;27.50;1.00;;;;;;5050325;28;20176;-79
2023/06/24 08:29:24;;;;;;;6.80;5.13;;;27.70;1.00;;;;;;5050866;28;20184;-79
2023/06/24 08:31:50;;;;;;;6.27;5.07;;;27.90;1.00;;;;;;5049457;28;20638;-81
2023/06/24 08:34:15;;;;;;;10.30;5.67;;;27.90;1.00;;;;;;5050220;28;20212;-80
2023/06/24 08:36:41;;;;;;;6.60;5.40;;;28.10;1.00;;;;;;5050768;28;20559;-81
2023/06/24 08:39:08;;;;;;;6.80;5.10;;;28.00;1.00;;;;;;5050586;28;20180;-79
2023/06/24 08:41:33;;;;;;;6.20;5.07;;;28.20;1.00;;;;;;5050313;28;20204;-77
2023/06/24 08:43:59;;;;;;;7.80;5.17;;;28.00;1.00;;;;;;5050767;28;20192;-79
2023/06/24 08:46:25;;;;;;;5.80;4.60;;;;;;;;;;5049858;28;20188;-79
2023/06/24 08:48:59;;;;;;;7.23;4.37;;;28.30;1.00;;;;;;5050591;28;20216;-78
2023/06/24 08:51:28;;;;;;;8.77;5.27;;;28.40;1.00;;;;;;5033734;28;20671;-79
2023/06/24 08:53:54;;;;;;;5.70;4.77;;;28.60;1.00;;;;;;5041522;28;20212;-78
2023/06/24 08:56:19;;;;;;;8.13;4.80;;;28.70;1.00;;;;;;5046790;28;20620;-80
2023/06/24 08:58:45;;;;;;;7.90;5.10;;;28.90;1.00;;;;;;5045673;28;20231;-79
2023/06/24 09:01:11;;;;;;;6.97;4.63;;;29.20;1.00;;;;;;5041680;28;20240;-81
2023/06/24 09:03:37;;;;;;;7.63;5.03;;;29.20;1.00;;;;;;5050951;28;20200;-80
2023/06/24 09:06:02;;;;;;;10.87;4.93;;;29.40;1.00;;;;;;5047982;28;20215;-77
2023/06/24 09:08:28;;;;;;;6.33;4.70;;;29.80;1.00;;;;;;5050998;28;20176;-77
2023/06/24 09:10:55;;;;;;;7.40;5.60;;;30.30;1.00;;;;;;5050288;28;20218;-77
2023/06/24 09:13:22;;;;;;;5.90;5.10;;;30.30;1.00;;;;;;5041841;28;20185;-77
2023/06/24 09:15:48;;;;;;;5.53;4.18;;;31.00;1.00;;;;;;5049102;28;20264;-77
2023/06/24 09:18:16;;;;;;;5.45;4.00;;;31.70;1.00;;;;;;5049573;28;20255;-77
2023/06/24 09:20:45;;;;;;;6.40;4.45;;;32.20;1.00;;;;;;5050955;28;20192;-77
2023/06/24 09:23:11;;;;;;;15.45;4.60;;;33.30;1.00;;;;;;5053649;28;20173;-76
2023/06/24 09:25:37;;;;;;;5.90;4.18;;;34.40;1.00;;;;;;5053596;28;20188;-77
2023/06/24 09:28:03;;;;;;;5.72;4.30;;;35.60;1.00;;;;;;5053339;28;20267;-77
2023/06/24 09:30:29;;;;;;;5.40;4.63;;;36.30;1.00;;;;;;5053494;28;20295;-77
2023/06/24 09:32:55;;;;;;;7.85;4.50;;;36.60;1.00;;;;;;5053949;28;20235;-77
2023/06/24 09:35:25;;;;;;;5.88;4.40;;;37.20;1.00;;;;;;5052455;28;20203;-77
2023/06/24 09:37:52;;;;;;;5.53;4.22;;;37.50;1.00;;;;;;5053404;28;20223;-78
2023/06/24 09:40:18;;;;;;;4.78;3.88;;;38.10;1.00;;;;;;5043443;28;20207;-81
2023/06/24 09:42:57;;;;;;;4.75;4.25;;;38.60;1.00;;;;;;5052017;28;20813;-79
2023/06/24 09:45:27;;;;;;;4.60;3.88;;;38.80;1.00;;;;;;5046832;28;20540;-79
2023/06/24 09:47:54;;;;;;;4.95;3.63;;;39.20;1.00;;;;;;5052489;28;20176;-80
2023/06/24 09:50:20;;;;;;;4.47;3.67;;;39.80;1.00;;;;;;5053164;28;20224;-78
2023/06/24 09:52:46;;;;;;;4.85;3.97;;;40.00;1.00;;;;;;5053387;28;20223;-78
2023/06/24 09:55:16;;;;;;;5.53;4.00;;;39.80;1.00;;;;;;5052504;28;20208;-79
2023/06/24 09:57:47;;;;;;;5.95;3.95;;;39.70;1.00;;;;;;5053165;28;20180;-77
2023/06/24 10:00:17;;;;;;;4.30;3.72;;;39.80;1.00;;;;;;5048833;28;20212;-78
2023/06/24 10:02:44;;;;;;;5.85;4.28;;;39.90;1.00;;;;;;5047832;28;20181;-80
2023/06/24 10:05:09;;;;;;;7.75;3.92;;;40.00;1.00;;;;;;5032814;28;20196;-79
2023/06/24 10:07:38;;;;;;;4.45;4.00;;;39.80;1.00;;;;;;5033213;28;20181;-80
2023/06/24 10:10:04;;;;;;;6.90;3.58;;;39.50;1.00;;;;;;5049228;28;20311;-80
2023/06/24 10:12:31;;;;;;;4.80;3.97;;;39.90;1.00;;;;;;5045533;28;20189;-81
2023/06/24 10:14:58;;;;;;;7.53;4.30;;;39.50;1.00;;;;;;5044792;28;20291;-79
2023/06/24 10:17:23;;;;;;;6.05;4.20;;;39.80;1.00;;;;;;5044395;28;20304;-79
2023/06/24 10:19:56;;;;;;;6.78;4.55;;;39.60;1.00;;;;;;5045266;28;20556;-79
2023/06/24 10:22:25;;;;;;;6.75;4.30;;;39.60;1.00;;;;;;5052559;28;20769;-79
2023/06/24 10:24:52;;;;;;;6.10;3.95;;;39.30;1.00;;;;;;5053509;28;20172;-79
2023/06/24 10:27:21;;;;;;;5.13;3.90;;;39.80;1.00;;;;;;5052824;28;20192;-78
2023/06/24 10:29:48;;;;;;;5.20;3.95;;;40.70;1.00;;;;;;5053182;28;20184;-82
2023/06/24 10:32:14;;;;;;;4.35;3.78;;;40.70;1.00;;;;;;5050828;28;20264;-78
2023/06/24 10:34:45;;;;;;;4.07;3.65;;;41.00;1.00;;;;;;5049390;28;20215;-78
2023/06/24 10:37:23;;;;;;;4.35;3.75;;;41.40;1.00;;;;;;5051604;28;20543;-78
2023/06/24 10:39:55;;;;;;;5.20;4.20;;;41.10;1.00;;;;;;5042775;28;20179;-78
2023/06/24 10:42:26;;;;;;;4.28;3.78;;;40.90;1.00;;;;;;5051565;28;20242;-78
2023/06/24 10:44:53;;;;;;;5.63;3.75;;;41.30;1.00;;;;;;5052219;28;20191;-79
2023/06/24 10:47:19;;;;;;;5.85;3.92;;;41.30;1.00;;;;;;5051458;28;20188;-81
2023/06/24 10:49:45;;;;;;;4.70;4.10;;;41.30;1.00;;;;;;5043955;28;20195;-81
2023/06/24 10:52:12;;;;;;;5.50;4.10;;;41.30;1.00;;;;;;5051471;28;20211;-80
2023/06/24 10:54:39;;;;;;;4.65;3.72;;;41.50;1.00;;;;;;5051684;28;20704;-79
2023/06/24 10:57:05;;;;;;;4.60;4.05;;;41.80;1.00;;;;;;5051921;28;20188;-79
2023/06/24 10:59:40;;;;;;;5.55;3.65;;;42.00;1.00;;;;;;5043322;28;20241;-80
2023/06/24 11:02:13;;;;;;;4.90;3.83;;;42.20;1.00;;;;;;5041630;28;20193;-82
2023/06/24 11:04:43;;;;;;;4.60;3.90;;;42.20;1.00;;;;;;5045013;28;20208;-80
2023/06/24 11:07:09;;;;;;;4.75;3.70;;;41.50;1.00;;;;;;5043093;28;20184;-78
2023/06/24 11:09:35;;;;;;;5.18;3.80;;;41.60;1.00;;;;;;5051608;28;20246;-80
2023/06/24 11:12:05;;;;;;;5.28;4.00;;;41.80;1.00;;;;;;5052303;28;20242;-79
2023/06/24 11:14:34;;;;;;;5.88;4.00;;;42.30;1.00;;;;;;5051277;28;20617;-81
2023/06/24 11:17:03;;;;;;;5.00;4.13;;;42.90;1.00;;;;;;5051470;28;20176;-78
2023/06/24 11:19:31;;;;;;;4.20;3.75;;;43.20;1.00;;;;;;5048420;28;20192;-79
2023/06/24 11:22:00;;;;;;;4.00;3.50;;;43.40;1.00;;;;;;5051056;28;20287;-79
2023/06/24 11:24:29;;;;;;;4.10;3.67;;;43.90;1.00;;;;;;5043986;28;20188;-79
2023/06/24 11:26:55;;;;;;;5.00;3.80;;;43.90;1.00;;;;;;5051189;28;20181;-79
2023/06/24 11:29:21;;;;;;;6.60;3.80;;;44.20;1.00;;;;;;5051081;28;20247;-79
2023/06/24 11:31:46;;;;;;;4.20;3.60;;;44.20;1.00;;;;;;5051118;28;20216;-79
2023/06/24 11:34:12;;;;;;;4.97;3.60;;;43.90;1.00;;;;;;5050642;28;20211;-80
2023/06/24 11:36:38;;;;;;;4.40;3.40;;;44.30;1.00;;;;;;5050627;28;20264;-79
2023/06/24 11:39:03;;;;;;;4.50;3.70;;;44.70;1.00;;;;;;5043583;28;20210;-82
2023/06/24 11:41:29;;;;;;;4.95;4.00;;;44.50;1.00;;;;;;5049623;28;20243;-80
2023/06/24 11:43:57;;;;;;;4.53;3.78;;;44.70;1.00;;;;;;5050817;28;20215;-80
2023/06/24 11:46:27;;;;;;;4.95;3.55;;;45.00;1.00;;;;;;5047963;28;20215;-79
2023/06/24 11:49:06;;;;;;;4.45;3.88;;;45.00;1.00;;;;;;5049617;28;20184;-81
2023/06/24 11:51:32;;;;;;;5.57;3.33;;;44.70;1.00;;;;;;5050217;28;20208;-80
2023/06/24 11:54:05;;;;;;;4.00;3.60;;;44.40;1.00;;;;;;5045413;28;20213;-79
2023/06/24 11:56:41;;;;;;;4.78;3.60;;;45.10;1.00;;;;;;5049634;28;21563;-79
2023/06/24 11:59:17;;;;;;;5.03;3.65;;;45.00;1.00;;;;;;5050899;28;20646;-79
2023/06/24 12:01:43;;;;;;;4.38;3.30;;;44.50;1.00;;;;;;5043320;28;20238;-78
2023/06/24 12:04:14;;;;;;;6.88;3.65;;;43.90;1.00;;;;;;5050294;28;20185;-79
2023/06/24 12:06:43;;;;;;;5.18;3.30;;;43.40;1.00;;;;;;5051126;28;20176;-79
2023/06/24 12:09:10;;;;;;;5.60;3.42;;;44.00;1.00;;;;;;5050188;28;20271;-78
2023/06/24 12:11:35;;;;;;;4.68;3.47;;;44.10;1.00;;;;;;5049444;28;20270;-78
2023/06/24 12:14:01;;;;;;;4.47;3.65;;;43.80;1.00;;;;;;5049943;28;20212;-79
2023/06/24 12:16:27;;;;;;;4.43;3.20;;;43.30;1.00;;;;;;5049562;28;20547;-79
2023/06/24 12:18:52;;;;;;;5.38;4.03;;;43.30;1.00;;;;;;5050192;28;20590;-80
2023/06/24 12:21:18;;;;;;;4.45;3.20;;;43.70;1.00;;;;;;5049294;28;20223;-80
2023/06/24 12:23:44;;;;;;;4.10;3.35;;;43.70;1.00;;;;;;5049913;28;20597;-78
2023/06/24 12:26:10;;;;;;;4.85;3.60;;;43.40;1.00;;;;;;5049868;28;20259;-78
2023/06/24 12:28:36;;;;;;;4.38;3.53;;;43.10;1.00;;;;;;5049473;28;20272;-77
2023/06/24 12:31:02;;;;;;;4.28;3.70;;;42.30;1.00;;;;;;5049468;28;20216;-77
2023/06/24 12:33:27;;;;;;;4.70;3.60;;;40.00;1.00;;;;;;5049571;28;20187;-77
2023/06/24 12:35:53;;;;;;;6.03;4.35;;;38.60;1.00;;;;;;5048256;28;20180;-77
2023/06/24 12:38:18;;;;;;;4.35;3.85;;;38.50;1.00;;;;;;5049324;28;20532;-78
2023/06/24 12:40:45;;;;;;;4.70;3.95;;;39.50;1.00;;;;;;5049126;28;20192;-78
2023/06/24 12:43:11;;;;;;;5.00;4.00;;;39.80;1.00;;;;;;5053016;28;20181;-77
2023/06/24 12:45:37;;;;;;;4.95;3.90;;;40.30;1.00;;;;;;5049315;28;20184;-78
2023/06/24 12:48:03;;;;;;;6.45;3.72;;;40.30;1.00;;;;;;5045526;28;20179;-82
2023/06/24 12:50:31;;;;;;;4.45;3.70;;;41.50;1.00;;;;;;5046566;28;20742;-77
2023/06/24 12:52:57;;;;;;;4.43;3.50;;;42.20;1.00;;;;;;5042515;28;20563;-77
2023/06/24 12:55:23;;;;;;;18.75;3.65;;;42.50;1.00;;;;;;5047612;28;20578;-77